createdAt,value
2023-03-07T00:00:14.680Z,80.55
2023-03-07T00:01:18.825Z,80.61
2023-03-07T00:02:23.063Z,80.66
2023-03-07T00:03:27.220Z,80.73
2023-03-07T00:04:31.351Z,80.71
2023-03-07T00:05:35.392Z,80.69
2023-03-07T00:06:39.661Z,80.71
2023-03-07T00:07:43.721Z,80.75
2023-03-07T00:08:47.911Z,80.72
2023-03-07T00:09:52.168Z,80.75
2023-03-07T00:10:56.367Z,80.79
2023-03-07T00:12:14.689Z,80.79
2023-03-07T00:13:17.552Z,80.81
2023-03-07T00:14:21.684Z,80.79
2023-03-07T00:15:25.792Z,80.85
2023-03-07T00:16:30.047Z,80.88
2023-03-07T00:17:34.225Z,80.90
2023-03-07T00:18:38.354Z,80.94
2023-03-07T00:19:42.441Z,80.95
2023-03-07T00:20:46.541Z,80.93
2023-03-07T00:21:50.772Z,80.90
2023-03-07T00:22:54.956Z,80.94
2023-03-07T00:23:59.150Z,81.00
2023-03-07T00:25:03.328Z,81.00
2023-03-07T00:26:07.559Z,81.02
2023-03-07T00:27:11.738Z,80.97
2023-03-07T00:28:15.852Z,80.94
2023-03-07T00:29:20.008Z,80.95
2023-03-07T00:30:24.183Z,80.96
2023-03-07T00:31:28.478Z,80.94
2023-03-07T00:32:32.557Z,80.94
2023-03-07T00:33:36.764Z,80.91
2023-03-07T00:34:40.915Z,80.94
2023-03-07T00:35:45.204Z,80.90
2023-03-07T00:36:49.150Z,80.84
2023-03-07T00:37:53.404Z,80.89
2023-03-07T00:38:57.537Z,80.91
2023-03-07T00:40:01.584Z,80.93
2023-03-07T00:41:05.857Z,80.95
2023-03-07T00:42:09.865Z,80.99
2023-03-07T00:43:14.099Z,81.05
2023-03-07T00:44:18.177Z,81.10
2023-03-07T00:45:22.409Z,81.21
2023-03-07T00:46:26.489Z,81.26
2023-03-07T00:47:30.660Z,81.29
2023-03-07T00:48:48.980Z,81.37
2023-03-07T00:49:51.779Z,81.44
2023-03-07T00:50:55.874Z,81.50
2023-03-07T00:52:00.027Z,81.52
2023-03-07T00:53:04.298Z,81.50
2023-03-07T00:54:08.477Z,81.51
2023-03-07T00:55:12.644Z,81.49
2023-03-07T00:56:16.754Z,81.47
2023-03-07T00:57:20.936Z,81.44
2023-03-07T00:58:25.052Z,81.42
2023-03-07T00:59:29.201Z,81.39
2023-03-07T01:00:33.458Z,81.40
2023-03-07T01:01:37.583Z,81.37
2023-03-07T01:02:41.735Z,81.35
2023-03-07T01:03:45.922Z,81.34
2023-03-07T01:04:50.191Z,81.34
2023-03-07T01:05:54.278Z,81.29
2023-03-07T01:06:58.461Z,81.28
2023-03-07T01:08:02.677Z,81.32
2023-03-07T01:09:06.927Z,81.35
2023-03-07T01:10:14.098Z,81.36
2023-03-07T01:11:17.219Z,81.34
2023-03-07T01:12:21.425Z,81.36
2023-03-07T01:13:25.597Z,81.48
2023-03-07T01:14:29.777Z,81.39
2023-03-07T01:15:33.911Z,81.43
2023-03-07T01:16:38.233Z,81.41
2023-03-07T01:17:42.165Z,81.41
2023-03-07T01:18:46.239Z,81.41
2023-03-07T01:19:50.481Z,81.39
2023-03-07T01:20:54.552Z,81.40
2023-03-07T01:21:58.710Z,81.38
2023-03-07T01:23:02.834Z,81.47
2023-03-07T01:24:07.093Z,81.42
2023-03-07T01:25:11.095Z,81.47
2023-03-07T01:26:15.466Z,81.48
2023-03-07T01:27:19.443Z,81.49
2023-03-07T01:28:23.615Z,81.46
2023-03-07T01:29:28.742Z,81.46
2023-03-07T01:30:32.464Z,81.46
2023-03-07T01:31:36.696Z,81.45
2023-03-07T01:32:40.791Z,81.48
2023-03-07T01:33:44.797Z,81.47
2023-03-07T01:34:49.126Z,81.46
2023-03-07T01:35:53.401Z,81.46
2023-03-07T01:36:57.382Z,81.47
2023-03-07T01:38:01.583Z,81.46
2023-03-07T01:39:05.622Z,81.47
2023-03-07T01:40:09.964Z,81.48
2023-03-07T01:41:14.100Z,81.45
2023-03-07T01:42:18.230Z,81.48
2023-03-07T01:43:22.487Z,81.47
2023-03-07T01:44:26.568Z,81.44
2023-03-07T01:45:30.752Z,81.44
2023-03-07T01:46:34.897Z,81.40
2023-03-07T01:47:39.164Z,81.42
2023-03-07T01:48:43.269Z,81.41
2023-03-07T01:49:47.495Z,81.40
2023-03-07T01:50:51.730Z,81.37
2023-03-07T01:51:55.895Z,81.36
2023-03-07T01:53:00.121Z,81.33
2023-03-07T01:54:04.238Z,81.30
2023-03-07T01:55:08.582Z,81.29
2023-03-07T01:56:15.595Z,81.28
2023-03-07T01:57:18.784Z,81.26
2023-03-07T01:58:22.948Z,81.24
2023-03-07T01:59:27.161Z,81.24
2023-03-07T02:00:31.360Z,81.27
2023-03-07T02:01:35.482Z,81.30
2023-03-07T02:02:39.576Z,81.31
2023-03-07T02:03:44.634Z,81.32
2023-03-07T02:04:48.307Z,81.41
2023-03-07T02:05:52.665Z,81.39
2023-03-07T02:06:56.830Z,81.44
2023-03-07T02:08:00.980Z,81.43
2023-03-07T02:09:05.146Z,81.43
2023-03-07T02:10:09.385Z,81.43
2023-03-07T02:11:13.613Z,81.42
2023-03-07T02:12:17.703Z,81.40
2023-03-07T02:13:21.773Z,81.43
2023-03-07T02:14:25.895Z,81.48
2023-03-07T02:15:30.074Z,81.53
2023-03-07T02:16:34.322Z,81.53
2023-03-07T02:17:38.473Z,81.63
2023-03-07T02:18:42.589Z,81.72
2023-03-07T02:19:46.738Z,81.81
2023-03-07T02:20:51.004Z,81.99
2023-03-07T02:21:55.152Z,82.14
2023-03-07T02:22:59.317Z,82.19
2023-03-07T02:24:03.463Z,82.39
2023-03-07T02:25:07.572Z,82.53
2023-03-07T02:26:12.639Z,82.60
2023-03-07T02:27:16.394Z,82.74
2023-03-07T02:28:20.658Z,82.70
2023-03-07T02:29:24.810Z,82.91
2023-03-07T02:30:29.040Z,82.83
2023-03-07T02:31:33.185Z,82.88
2023-03-07T02:32:37.374Z,82.99
2023-03-07T02:33:41.460Z,83.23
2023-03-07T02:34:45.653Z,83.29
2023-03-07T02:35:49.927Z,83.34
2023-03-07T02:36:54.030Z,83.30
2023-03-07T02:37:58.131Z,83.36
2023-03-07T02:39:02.291Z,83.41
2023-03-07T02:40:06.487Z,83.52
2023-03-07T02:41:10.797Z,83.58
2023-03-07T02:42:14.870Z,83.67
2023-03-07T02:43:18.936Z,83.60
2023-03-07T02:44:23.178Z,83.83
2023-03-07T02:45:27.361Z,83.97
2023-03-07T02:46:31.604Z,84.17
2023-03-07T02:47:35.570Z,84.24
2023-03-07T02:48:39.830Z,84.50
2023-03-07T02:49:44.020Z,84.68
2023-03-07T02:50:48.137Z,84.71
2023-03-07T02:51:52.246Z,84.89
2023-03-07T02:52:56.409Z,84.98
2023-03-07T02:54:00.582Z,84.97
2023-03-07T02:55:04.787Z,85.06
2023-03-07T02:56:08.941Z,85.08
2023-03-07T02:57:13.105Z,85.14
2023-03-07T02:58:17.262Z,85.17
2023-03-07T02:59:21.393Z,85.18
2023-03-07T03:00:25.447Z,85.45
2023-03-07T03:01:29.810Z,85.57
2023-03-07T03:02:33.900Z,85.56
2023-03-07T03:03:38.047Z,85.67
2023-03-07T03:04:42.381Z,85.76
2023-03-07T03:05:47.348Z,86.06
2023-03-07T03:06:51.005Z,86.28
2023-03-07T03:07:55.274Z,86.38
2023-03-07T03:08:59.286Z,86.25
2023-03-07T03:10:03.443Z,86.33
2023-03-07T03:11:07.657Z,86.38
2023-03-07T03:12:11.891Z,86.54
2023-03-07T03:13:16.170Z,86.66
2023-03-07T03:14:20.201Z,86.87
2023-03-07T03:15:24.253Z,87.01
2023-03-07T03:16:28.509Z,87.31
2023-03-07T03:17:32.616Z,87.69
2023-03-07T03:18:36.631Z,87.92
2023-03-07T03:19:40.907Z,87.97
2023-03-07T03:20:44.975Z,88.14
2023-03-07T03:21:49.211Z,88.31
2023-03-07T03:22:53.294Z,88.35
2023-03-07T03:23:57.563Z,88.22
2023-03-07T03:25:01.639Z,88.43
2023-03-07T03:26:05.900Z,88.69
2023-03-07T03:27:10.051Z,88.92
2023-03-07T03:28:17.121Z,88.98
2023-03-07T03:29:20.472Z,89.00
2023-03-07T03:30:24.451Z,89.11
2023-03-07T03:31:28.600Z,89.21
2023-03-07T03:32:32.848Z,89.36
2023-03-07T03:33:36.870Z,89.46
2023-03-07T03:34:41.034Z,89.67
2023-03-07T03:35:45.275Z,89.73
2023-03-07T03:36:49.353Z,89.96
2023-03-07T03:37:53.450Z,90.12
2023-03-07T03:39:11.585Z,90.27
2023-03-07T03:40:14.868Z,90.47
2023-03-07T03:41:18.598Z,90.71
2023-03-07T03:42:22.811Z,90.82
2023-03-07T03:43:26.886Z,91.04
2023-03-07T03:44:31.064Z,91.40
2023-03-07T03:45:49.250Z,91.65
2023-03-07T03:46:52.209Z,92.07
2023-03-07T03:47:56.294Z,92.27
2023-03-07T03:49:00.458Z,92.43
2023-03-07T03:50:04.494Z,92.71
2023-03-07T03:51:08.572Z,93.04
2023-03-07T03:52:12.771Z,93.22
2023-03-07T03:53:16.813Z,93.36
2023-03-07T03:54:21.059Z,93.56
2023-03-07T03:55:25.219Z,93.67
2023-03-07T03:56:29.360Z,93.69
2023-03-07T03:57:33.520Z,93.71
2023-03-07T03:58:37.522Z,93.95
2023-03-07T03:59:41.856Z,94.01
2023-03-07T04:00:45.998Z,94.08
2023-03-07T04:01:50.245Z,94.24
2023-03-07T04:02:54.401Z,94.48
2023-03-07T04:03:58.420Z,94.70
2023-03-07T04:05:02.555Z,94.89
2023-03-07T04:06:06.744Z,95.00
2023-03-07T04:07:16.916Z,95.07
2023-03-07T04:08:19.568Z,95.27
2023-03-07T04:09:23.696Z,95.42
2023-03-07T04:10:27.895Z,95.62
2023-03-07T04:11:46.158Z,95.74
2023-03-07T04:12:49.111Z,95.89
2023-03-07T04:14:07.295Z,95.99
2023-03-07T04:15:10.203Z,96.23
2023-03-07T04:16:14.220Z,96.41
2023-03-07T04:17:18.180Z,96.53
2023-03-07T04:18:22.357Z,96.63
2023-03-07T04:19:27.332Z,96.75
2023-03-07T04:20:30.625Z,96.84
2023-03-07T04:21:34.847Z,96.95
2023-03-07T04:22:39.114Z,97.02
2023-03-07T04:23:43.199Z,97.01
2023-03-07T04:24:47.495Z,97.02
2023-03-07T04:25:51.647Z,97.13
2023-03-07T04:26:55.750Z,97.18
2023-03-07T04:27:59.781Z,97.23
2023-03-07T04:29:03.983Z,97.35
2023-03-07T04:30:08.045Z,97.44
2023-03-07T04:31:12.318Z,97.30
2023-03-07T04:32:16.462Z,97.23
2023-03-07T04:33:20.409Z,97.22
2023-03-07T04:34:24.635Z,97.32
2023-03-07T04:35:28.721Z,97.58
2023-03-07T04:36:32.793Z,97.65
2023-03-07T04:37:36.933Z,97.87
2023-03-07T04:38:41.135Z,98.04
2023-03-07T04:39:45.296Z,98.17
2023-03-07T04:40:49.336Z,98.30
2023-03-07T04:41:53.458Z,98.36
2023-03-07T04:42:57.842Z,98.38
2023-03-07T04:44:01.947Z,98.36
2023-03-07T04:45:06.164Z,98.30
2023-03-07T04:46:10.229Z,98.21
2023-03-07T04:47:14.402Z,98.14
2023-03-07T04:48:24.392Z,98.25
2023-03-07T04:49:27.133Z,98.28
2023-03-07T04:50:31.257Z,98.27
2023-03-07T04:51:35.421Z,98.26
2023-03-07T04:52:39.637Z,98.20
2023-03-07T04:53:43.678Z,98.19
2023-03-07T04:54:47.867Z,98.12
2023-03-07T04:55:52.018Z,98.05
2023-03-07T04:56:56.281Z,98.14
2023-03-07T04:58:00.263Z,98.17
2023-03-07T04:59:04.508Z,98.07
2023-03-07T05:00:08.550Z,98.09
2023-03-07T05:01:12.813Z,98.04
2023-03-07T05:02:16.911Z,98.09
2023-03-07T05:03:21.219Z,98.03
2023-03-07T05:04:25.404Z,97.91
2023-03-07T05:05:29.498Z,97.84
2023-03-07T05:06:33.551Z,97.74
2023-03-07T05:07:37.766Z,97.59
2023-03-07T05:08:41.900Z,97.53
2023-03-07T05:09:46.083Z,97.50
2023-03-07T05:10:50.241Z,97.42
2023-03-07T05:11:54.378Z,97.50
2023-03-07T05:12:58.467Z,97.58
2023-03-07T05:14:02.616Z,97.57
2023-03-07T05:15:06.650Z,97.59
2023-03-07T05:16:11.034Z,97.54
2023-03-07T05:17:15.145Z,97.52
2023-03-07T05:18:19.338Z,97.49
2023-03-07T05:19:23.425Z,97.52
2023-03-07T05:20:27.701Z,97.55
2023-03-07T05:21:31.845Z,97.54
2023-03-07T05:22:36.078Z,97.50
2023-03-07T05:23:40.299Z,97.50
2023-03-07T05:24:44.455Z,97.44
2023-03-07T05:25:48.601Z,97.37
2023-03-07T05:26:52.762Z,97.33
2023-03-07T05:27:56.792Z,97.30
2023-03-07T05:29:00.923Z,97.32
2023-03-07T05:30:05.005Z,97.31
2023-03-07T05:31:09.270Z,97.25
2023-03-07T05:32:13.387Z,97.19
2023-03-07T05:33:17.515Z,97.15
2023-03-07T05:34:21.581Z,97.08
2023-03-07T05:35:25.824Z,97.02
2023-03-07T05:36:29.834Z,96.96
2023-03-07T05:37:33.984Z,97.00
2023-03-07T05:38:38.171Z,97.03
2023-03-07T05:39:42.434Z,96.98
2023-03-07T05:40:46.564Z,96.98
2023-03-07T05:41:50.810Z,97.00
2023-03-07T05:42:54.956Z,97.10
2023-03-07T05:43:59.115Z,97.12
2023-03-07T05:45:03.222Z,97.11
2023-03-07T05:46:07.523Z,97.01
2023-03-07T05:47:11.599Z,96.96
2023-03-07T05:48:15.770Z,96.89
2023-03-07T05:49:20.071Z,96.85
2023-03-07T05:50:24.200Z,96.82
2023-03-07T05:51:28.253Z,96.83
2023-03-07T05:52:32.527Z,96.81
2023-03-07T05:53:36.665Z,96.89
2023-03-07T05:54:40.944Z,96.89
2023-03-07T05:55:45.043Z,96.87
2023-03-07T05:56:49.114Z,96.78
2023-03-07T05:57:53.341Z,96.74
2023-03-07T05:58:57.488Z,96.74
2023-03-07T06:00:01.713Z,96.71
2023-03-07T06:01:05.727Z,96.68
2023-03-07T06:02:09.815Z,96.63
2023-03-07T06:03:14.141Z,96.56
2023-03-07T06:04:18.277Z,96.56
2023-03-07T06:05:24.838Z,96.57
2023-03-07T06:06:26.714Z,96.53
2023-03-07T06:07:30.664Z,96.57
2023-03-07T06:08:35.010Z,96.57
2023-03-07T06:09:39.102Z,96.55
2023-03-07T06:10:43.255Z,96.57
2023-03-07T06:11:47.506Z,96.52
2023-03-07T06:12:51.634Z,96.45
2023-03-07T06:13:55.621Z,96.42
2023-03-07T06:14:59.848Z,96.44
2023-03-07T06:16:04.091Z,96.47
2023-03-07T06:17:22.150Z,96.49
2023-03-07T06:18:25.032Z,96.43
2023-03-07T06:19:43.215Z,96.39
2023-03-07T06:20:46.121Z,96.35
2023-03-07T06:21:50.211Z,96.35
2023-03-07T06:22:54.388Z,96.40
2023-03-07T06:23:58.537Z,96.39
2023-03-07T06:25:02.719Z,96.39
2023-03-07T06:26:06.951Z,96.41
2023-03-07T06:27:10.993Z,96.42
2023-03-07T06:28:15.222Z,96.47
2023-03-07T06:29:19.356Z,96.47
2023-03-07T06:30:23.371Z,96.43
2023-03-07T06:31:27.691Z,96.40
2023-03-07T06:32:31.760Z,96.36
2023-03-07T06:33:35.921Z,96.33
2023-03-07T06:34:39.962Z,96.27
2023-03-07T06:35:45.188Z,96.29
2023-03-07T06:36:48.980Z,96.31
2023-03-07T06:37:53.112Z,96.33
2023-03-07T06:38:57.320Z,96.33
2023-03-07T06:40:01.433Z,96.30
2023-03-07T06:41:05.790Z,96.28
2023-03-07T06:42:09.847Z,96.25
2023-03-07T06:43:14.014Z,96.28
2023-03-07T06:44:18.202Z,96.27
2023-03-07T06:45:22.361Z,96.31
2023-03-07T06:46:26.486Z,96.32
2023-03-07T06:47:30.702Z,96.28
2023-03-07T06:48:34.978Z,96.25
2023-03-07T06:49:39.051Z,96.20
2023-03-07T06:50:43.131Z,96.19
2023-03-07T06:51:47.579Z,96.24
2023-03-07T06:52:51.673Z,96.23
2023-03-07T06:53:55.864Z,96.18
2023-03-07T06:54:59.977Z,96.18
2023-03-07T06:56:04.132Z,96.15
2023-03-07T06:57:09.206Z,96.18
2023-03-07T06:58:12.999Z,96.17
2023-03-07T06:59:17.005Z,96.22
2023-03-07T07:00:21.319Z,96.24
2023-03-07T07:01:25.568Z,96.29
2023-03-07T07:02:29.785Z,96.30
2023-03-07T07:03:33.756Z,96.31
2023-03-07T07:04:38.055Z,96.35
2023-03-07T07:05:42.097Z,96.34
2023-03-07T07:06:46.414Z,96.32
2023-03-07T07:07:50.595Z,96.30
2023-03-07T07:08:54.657Z,96.31
2023-03-07T07:09:58.916Z,96.31
2023-03-07T07:11:03.164Z,96.38
2023-03-07T07:12:07.366Z,96.36
2023-03-07T07:13:11.506Z,96.32
2023-03-07T07:14:15.668Z,96.26
2023-03-07T07:15:19.814Z,96.23
2023-03-07T07:16:24.037Z,96.21
2023-03-07T07:17:28.165Z,96.19
2023-03-07T07:18:32.447Z,96.17
2023-03-07T07:19:36.617Z,96.18
2023-03-07T07:20:40.839Z,96.14
2023-03-07T07:21:44.991Z,96.11
2023-03-07T07:22:49.132Z,96.10
2023-03-07T07:23:53.367Z,96.08
2023-03-07T07:24:57.663Z,96.05
2023-03-07T07:26:01.944Z,96.05
2023-03-07T07:27:06.109Z,96.08
2023-03-07T07:28:10.257Z,96.11
2023-03-07T07:29:14.496Z,96.10
2023-03-07T07:30:18.636Z,96.05
2023-03-07T07:31:22.872Z,95.96
2023-03-07T07:32:27.123Z,95.98
2023-03-07T07:33:31.121Z,95.96
2023-03-07T07:34:35.210Z,95.93
2023-03-07T07:35:39.414Z,95.95
2023-03-07T07:36:43.541Z,95.94
2023-03-07T07:37:47.708Z,95.90
2023-03-07T07:38:51.953Z,95.88
2023-03-07T07:39:56.124Z,95.90
2023-03-07T07:41:00.316Z,95.90
2023-03-07T07:42:04.465Z,95.89
2023-03-07T07:43:08.615Z,95.88
2023-03-07T07:44:12.950Z,95.89
2023-03-07T07:45:17.093Z,95.89
2023-03-07T07:46:21.478Z,95.88
2023-03-07T07:47:25.514Z,95.79
2023-03-07T07:48:29.695Z,95.83
2023-03-07T07:49:33.730Z,95.81
2023-03-07T07:50:37.965Z,95.71
2023-03-07T07:51:42.145Z,95.69
2023-03-07T07:52:46.327Z,95.64
2023-03-07T07:53:50.584Z,95.58
2023-03-07T07:54:54.734Z,95.43
2023-03-07T07:55:58.901Z,95.47
2023-03-07T07:57:02.979Z,95.41
2023-03-07T07:58:07.211Z,95.36
2023-03-07T07:59:11.497Z,95.35
2023-03-07T08:00:15.617Z,95.31
2023-03-07T08:01:19.753Z,95.28
2023-03-07T08:02:23.968Z,95.25
2023-03-07T08:03:28.194Z,95.25
2023-03-07T08:04:32.406Z,95.22
2023-03-07T08:05:36.495Z,95.24
2023-03-07T08:06:40.633Z,95.22
2023-03-07T08:07:44.837Z,95.21
2023-03-07T08:08:48.921Z,95.19
2023-03-07T08:09:53.110Z,95.20
2023-03-07T08:10:57.313Z,95.19
2023-03-07T08:12:01.501Z,95.14
2023-03-07T08:13:05.640Z,95.14
2023-03-07T08:14:09.840Z,95.13
2023-03-07T08:15:13.962Z,95.14
2023-03-07T08:16:18.326Z,95.13
2023-03-07T08:17:22.337Z,95.14
2023-03-07T08:18:26.502Z,95.14
2023-03-07T08:19:30.724Z,95.11
2023-03-07T08:20:34.883Z,95.09
2023-03-07T08:21:39.055Z,95.07
2023-03-07T08:22:43.235Z,95.05
2023-03-07T08:23:47.390Z,94.97
2023-03-07T08:24:51.630Z,95.02
2023-03-07T08:25:55.680Z,94.99
2023-03-07T08:26:59.874Z,94.97
2023-03-07T08:28:04.064Z,94.92
2023-03-07T08:29:08.262Z,94.89
2023-03-07T08:30:12.479Z,94.88
2023-03-07T08:31:16.596Z,94.89
2023-03-07T08:32:20.801Z,94.85
2023-03-07T08:33:24.930Z,94.85
2023-03-07T08:34:29.246Z,94.84
2023-03-07T08:35:33.382Z,94.82
2023-03-07T08:36:37.434Z,94.81
2023-03-07T08:37:41.746Z,94.80
2023-03-07T08:38:45.799Z,94.78
2023-03-07T08:39:50.027Z,94.76
2023-03-07T08:40:54.277Z,94.73
2023-03-07T08:41:58.441Z,94.71
2023-03-07T08:43:02.619Z,94.70
2023-03-07T08:44:06.673Z,94.71
2023-03-07T08:45:10.833Z,94.72
2023-03-07T08:46:15.203Z,94.74
2023-03-07T08:47:19.311Z,94.70
2023-03-07T08:48:23.502Z,94.58
2023-03-07T08:49:27.643Z,94.47
2023-03-07T08:50:31.899Z,94.38
2023-03-07T08:51:35.998Z,94.28
2023-03-07T08:52:40.262Z,94.20
2023-03-07T08:53:44.484Z,94.09
2023-03-07T08:54:48.612Z,93.99
2023-03-07T08:55:52.824Z,93.94
2023-03-07T08:56:56.967Z,93.90
2023-03-07T08:59:28.351Z,93.73
2023-03-07T09:00:32.459Z,93.73
2023-03-07T09:01:36.719Z,93.70
2023-03-07T09:02:40.866Z,93.73
2023-03-07T09:03:45.185Z,93.73
2023-03-07T09:04:49.341Z,93.74
2023-03-07T09:05:53.439Z,93.70
2023-03-07T09:06:59.108Z,93.64
2023-03-07T09:08:01.955Z,93.56
2023-03-07T09:09:06.110Z,93.44
2023-03-07T09:10:10.308Z,93.36
2023-03-07T09:11:14.516Z,93.28
2023-03-07T09:12:18.594Z,93.20
2023-03-07T09:13:22.831Z,93.14
2023-03-07T09:14:27.058Z,93.05
2023-03-07T09:15:37.281Z,92.93
2023-03-07T09:16:40.312Z,92.81
2023-03-07T09:17:44.170Z,92.74
2023-03-07T09:18:48.479Z,92.69
2023-03-07T09:19:52.617Z,92.63
2023-03-07T09:20:56.830Z,92.46
2023-03-07T09:22:00.902Z,92.29
2023-03-07T09:23:05.209Z,92.15
2023-03-07T09:24:09.483Z,92.05
2023-03-07T09:25:13.619Z,91.98
2023-03-07T09:26:17.818Z,91.96
2023-03-07T09:27:22.098Z,91.94
2023-03-07T09:28:26.259Z,91.92
2023-03-07T09:29:36.442Z,91.89
2023-03-07T09:30:39.236Z,91.79
2023-03-07T09:31:43.456Z,91.78
2023-03-07T09:32:47.572Z,91.69
2023-03-07T09:35:18.889Z,91.56
2023-03-07T09:36:22.946Z,91.53
2023-03-07T09:37:27.440Z,91.53
2023-03-07T09:38:31.517Z,91.46
2023-03-07T09:39:35.670Z,91.52
2023-03-07T09:40:39.860Z,91.50
2023-03-07T09:41:44.055Z,91.53
2023-03-07T09:42:48.385Z,91.46
2023-03-07T09:43:52.493Z,91.35
2023-03-07T09:44:56.680Z,91.11
2023-03-07T09:46:01.011Z,90.95
2023-03-07T09:47:05.331Z,90.75
2023-03-07T09:48:09.516Z,90.34
2023-03-07T09:49:13.903Z,89.93
2023-03-07T09:50:18.044Z,89.61
2023-03-07T09:51:22.259Z,89.46
2023-03-07T09:52:26.396Z,89.30
2023-03-07T09:53:30.627Z,89.19
2023-03-07T09:54:34.811Z,89.12
2023-03-07T09:55:39.014Z,89.07
2023-03-07T09:56:43.203Z,89.00
2023-03-07T09:57:47.384Z,88.99
2023-03-07T09:58:51.652Z,88.92
2023-03-07T09:59:55.800Z,88.86
2023-03-07T10:00:59.998Z,88.83
2023-03-07T10:02:04.162Z,88.78
2023-03-07T10:03:08.535Z,88.69
2023-03-07T10:04:12.619Z,88.70
2023-03-07T10:05:16.744Z,88.51
2023-03-07T10:06:21.028Z,88.46
2023-03-07T10:07:25.203Z,88.31
2023-03-07T10:08:29.418Z,88.26
2023-03-07T10:09:33.617Z,88.27
2023-03-07T10:10:37.817Z,88.27
2023-03-07T10:11:42.115Z,88.31
2023-03-07T10:12:46.193Z,88.36
2023-03-07T10:13:50.410Z,88.34
2023-03-07T10:14:54.684Z,88.33
2023-03-07T10:15:58.947Z,88.17
2023-03-07T10:17:03.282Z,88.04
2023-03-07T10:18:07.414Z,88.02
2023-03-07T10:19:11.649Z,88.11
2023-03-07T10:20:15.794Z,88.21
2023-03-07T10:21:19.891Z,88.34
2023-03-07T10:22:24.144Z,88.48
2023-03-07T10:23:28.339Z,88.57
2023-03-07T10:24:32.550Z,88.65
2023-03-07T10:25:36.711Z,88.65
2023-03-07T10:26:40.903Z,88.73
2023-03-07T10:27:45.121Z,88.76
2023-03-07T10:28:49.395Z,88.89
2023-03-07T10:29:53.553Z,89.17
2023-03-07T10:30:57.798Z,89.37
2023-03-07T10:32:02.010Z,89.55
2023-03-07T10:33:06.251Z,89.89
2023-03-07T10:34:13.690Z,90.16
2023-03-07T10:35:14.637Z,90.36
2023-03-07T10:36:18.812Z,90.55
2023-03-07T10:37:37.017Z,90.64
2023-03-07T10:38:40.113Z,90.86
2023-03-07T10:39:44.210Z,91.16
2023-03-07T10:40:48.407Z,91.45
2023-03-07T10:41:52.580Z,91.83
2023-03-07T10:42:56.880Z,92.23
2023-03-07T10:44:01.027Z,92.74
2023-03-07T10:45:05.228Z,93.19
2023-03-07T10:46:23.880Z,93.56
2023-03-07T10:47:13.671Z,93.87
2023-03-07T10:48:17.955Z,94.12
2023-03-07T10:49:22.206Z,94.33
2023-03-07T10:50:26.362Z,94.64
2023-03-07T10:51:30.427Z,94.86
2023-03-07T10:52:34.706Z,95.22
2023-03-07T10:53:38.927Z,95.48
2023-03-07T10:54:43.169Z,95.67
2023-03-07T10:55:47.363Z,95.89
2023-03-07T10:56:51.662Z,96.17
2023-03-07T10:57:57.553Z,96.38
2023-03-07T10:59:00.032Z,96.50
2023-03-07T11:00:04.202Z,96.57
2023-03-07T11:01:08.634Z,96.56
2023-03-07T11:02:12.679Z,96.58
2023-03-07T11:03:16.843Z,96.50
2023-03-07T11:04:21.073Z,96.38
2023-03-07T11:05:25.229Z,96.13
2023-03-07T11:06:29.481Z,95.88
2023-03-07T11:07:33.646Z,95.45
2023-03-07T11:08:37.730Z,95.00
2023-03-07T11:09:41.965Z,94.77
2023-03-07T11:10:46.169Z,94.67
2023-03-07T11:11:50.392Z,94.69
2023-03-07T11:12:54.549Z,94.67
2023-03-07T11:14:14.821Z,94.68
2023-03-07T11:15:15.857Z,94.62
2023-03-07T11:16:20.047Z,94.56
2023-03-07T11:18:51.019Z,94.51
2023-03-07T11:19:55.154Z,94.50
2023-03-07T11:20:59.345Z,94.52
2023-03-07T11:22:03.592Z,94.58
2023-03-07T11:23:07.728Z,94.67
2023-03-07T11:24:11.941Z,94.77
2023-03-07T11:25:16.237Z,94.87
2023-03-07T11:26:20.461Z,94.92
2023-03-07T11:27:24.607Z,94.96
2023-03-07T11:28:28.788Z,95.00
2023-03-07T11:29:32.846Z,95.03
2023-03-07T11:30:37.087Z,94.99
2023-03-07T11:31:41.274Z,94.94
2023-03-07T11:32:45.587Z,94.93
2023-03-07T11:33:59.226Z,94.92
2023-03-07T11:34:53.849Z,94.94
2023-03-07T11:35:58.168Z,95.02
2023-03-07T11:37:02.344Z,95.08
2023-03-07T11:38:06.606Z,95.14
2023-03-07T11:39:10.781Z,95.25
2023-03-07T11:40:14.946Z,95.40
2023-03-07T11:41:19.250Z,95.53
2023-03-07T11:42:23.440Z,95.74
2023-03-07T11:43:27.676Z,95.92
2023-03-07T11:44:31.841Z,95.99
2023-03-07T11:45:36.142Z,95.93
2023-03-07T11:46:40.450Z,95.88
2023-03-07T11:47:44.542Z,95.79
2023-03-07T11:48:48.923Z,95.55
2023-03-07T11:49:53.089Z,95.32
2023-03-07T11:50:57.319Z,94.97
2023-03-07T11:52:01.501Z,94.71
2023-03-07T11:53:05.933Z,94.40
2023-03-07T11:54:10.026Z,94.08
2023-03-07T11:55:14.275Z,93.98
2023-03-07T11:56:18.529Z,94.17
2023-03-07T11:57:22.707Z,94.32
2023-03-07T11:58:27.020Z,94.47
2023-03-07T11:59:31.281Z,94.54
2023-03-07T12:00:49.545Z,94.60
2023-03-07T12:01:52.602Z,94.58
2023-03-07T12:02:56.848Z,94.60
2023-03-07T12:04:00.901Z,94.69
2023-03-07T12:05:05.066Z,94.69
2023-03-07T12:06:09.331Z,94.66
2023-03-07T12:07:13.431Z,94.64
2023-03-07T12:08:17.768Z,94.52
2023-03-07T12:09:21.891Z,94.23
2023-03-07T12:10:26.136Z,94.02
2023-03-07T12:11:30.409Z,93.81
2023-03-07T12:12:34.648Z,93.66
2023-03-07T12:13:38.707Z,93.23
2023-03-07T12:14:42.971Z,93.02
2023-03-07T12:15:47.269Z,92.97
2023-03-07T12:16:51.471Z,92.95
2023-03-07T12:17:58.602Z,92.74
2023-03-07T12:19:01.870Z,92.47
2023-03-07T12:20:06.132Z,92.16
2023-03-07T12:21:10.300Z,91.84
2023-03-07T12:22:14.557Z,91.73
2023-03-07T12:23:18.568Z,91.73
2023-03-07T12:24:22.810Z,91.57
2023-03-07T12:25:27.207Z,91.31
2023-03-07T12:26:31.357Z,91.28
2023-03-07T12:27:35.528Z,90.96
2023-03-07T12:28:39.641Z,90.61
2023-03-07T12:29:43.871Z,90.25
2023-03-07T12:30:48.057Z,89.94
2023-03-07T12:31:52.407Z,89.88
2023-03-07T12:32:56.769Z,89.77
2023-03-07T12:34:06.841Z,89.60
2023-03-07T12:35:10.429Z,89.52
2023-03-07T12:36:14.398Z,89.13
2023-03-07T12:37:18.394Z,88.66
2023-03-07T12:38:22.632Z,88.06
2023-03-07T12:39:26.817Z,87.75
2023-03-07T12:40:31.074Z,87.66
2023-03-07T12:41:35.150Z,87.60
2023-03-07T12:42:39.511Z,87.40
2023-03-07T12:43:43.696Z,87.35
2023-03-07T12:44:48.048Z,87.48
2023-03-07T12:45:52.270Z,87.56
2023-03-07T12:46:56.479Z,87.38
2023-03-07T12:48:00.708Z,87.23
2023-03-07T12:49:05.042Z,87.15
2023-03-07T12:50:09.168Z,87.08
2023-03-07T12:51:13.361Z,86.94
2023-03-07T12:52:17.610Z,86.54
2023-03-07T12:53:21.786Z,86.22
2023-03-07T12:54:26.147Z,86.30
2023-03-07T12:55:30.353Z,85.74
2023-03-07T12:56:34.605Z,85.64
2023-03-07T12:57:38.803Z,85.38
2023-03-07T12:58:43.013Z,85.06
2023-03-07T12:59:47.235Z,84.67
2023-03-07T13:00:51.542Z,84.10
2023-03-07T13:01:55.667Z,83.21
2023-03-07T13:03:00.035Z,82.71
2023-03-07T13:04:04.265Z,82.27
2023-03-07T13:05:08.464Z,81.92
2023-03-07T13:06:12.673Z,81.74
2023-03-07T13:07:16.919Z,81.66
2023-03-07T13:08:21.148Z,81.71
2023-03-07T13:09:25.378Z,81.97
2023-03-07T13:10:29.594Z,82.26
2023-03-07T13:11:33.866Z,82.44
2023-03-07T13:12:37.974Z,82.54
2023-03-07T13:13:42.189Z,82.51
2023-03-07T13:14:46.359Z,82.42
2023-03-07T13:15:50.547Z,81.93
2023-03-07T13:16:54.812Z,81.46
2023-03-07T13:17:58.899Z,81.24
2023-03-07T13:19:03.158Z,81.13
2023-03-07T13:20:10.381Z,81.35
2023-03-07T13:21:13.667Z,81.31
2023-03-07T13:22:17.858Z,81.50
2023-03-07T13:23:22.097Z,81.67
2023-03-07T13:24:26.250Z,81.83
2023-03-07T13:25:30.649Z,81.99
2023-03-07T13:26:34.871Z,82.04
2023-03-07T13:27:38.979Z,82.19
2023-03-07T13:28:43.258Z,82.31
2023-03-07T13:29:47.391Z,82.35
2023-03-07T13:30:51.665Z,82.38
2023-03-07T13:31:55.836Z,82.55
2023-03-07T13:33:00.110Z,82.68
2023-03-07T13:34:04.347Z,82.79
2023-03-07T13:35:08.518Z,82.91
2023-03-07T13:36:12.746Z,83.06
2023-03-07T13:37:17.026Z,83.17
2023-03-07T13:38:21.151Z,83.20
2023-03-07T13:39:25.413Z,83.12
2023-03-07T13:40:29.576Z,83.17
2023-03-07T13:41:33.848Z,82.89
2023-03-07T13:42:37.990Z,82.77
2023-03-07T13:43:42.215Z,82.69
2023-03-07T13:44:46.575Z,82.38
2023-03-07T13:45:50.906Z,82.48
2023-03-07T13:46:55.056Z,82.45
2023-03-07T13:47:59.220Z,82.38
2023-03-07T13:49:03.414Z,81.92
2023-03-07T13:50:07.637Z,81.44
2023-03-07T13:51:11.899Z,81.00
2023-03-07T13:52:16.176Z,80.85
2023-03-07T13:53:20.443Z,80.20